Virtual LH

Virtual LH. There's no better way to fly
Since 2013.



AIRPORT MAP

METAR AND TAF INFORMATION

METAR FOR LEAL
ADDS - METARS form results

(1151 UTC 20 June 2019)
Data provider http://aviationweather.gov/metar/data/
 
METAR text: LEAL 201130Z 08011KT 050V110 9999 FEW014 SCT018 24/18 Q1013 NOSIG
Conditions at: LEAL (ALICANTE/EL ALTE, ES) observed 1130 UTC 20 June 2019
Temperature: 24.0°C (75°F)
Dewpoint: 18.0°C (64°F) [RH = 69%]
Pressure (altimeter): 29.91 inches Hg (1013.0 mb)
Winds: from the E (80 degrees) at 13 MPH (11 knots; 5.7 m/s)
Visibility: 6 or more miles (10+ km)
Ceiling: at least 12,000 feet AGL
Clouds: few clouds at 1400 feet AGL
scattered clouds at 1800 feet AGL
Weather: no significant weather observed at this time

METAR text: LEAL 201100Z 09009KT 050V130 9999 FEW014 24/19 Q1013 NOSIG
Conditions at: LEAL (ALICANTE/EL ALTE, ES) observed 1100 UTC 20 June 2019
Temperature: 24.0°C (75°F)
Dewpoint: 19.0°C (66°F) [RH = 74%]
Pressure (altimeter): 29.91 inches Hg (1013.0 mb)
Winds: from the E (90 degrees) at 10 MPH (9 knots; 4.6 m/s)
Visibility: 6 or more miles (10+ km)
Ceiling: at least 12,000 feet AGL
Clouds: few clouds at 1400 feet AGL
Weather: no significant weather observed at this time

Forecast for: LEAL (ALICANTE/EL ALTE, ES)
Text: TAF LEAL 201100Z 2012/2112 10010KT 9999 FEW025 TX27/2012Z TN20/2106Z
Forecast period: 1200 UTC 20 June 2019 to 0500 UTC 21 June 2019
Forecast type: FROM: standard forecast or significant change
Winds: from the E (100 degrees) at 12 MPH (10 knots; 5.1 m/s)
Visibility: 6 or more miles 10+ km)
Ceiling: at least 12,000 feet AGL
Clouds: few clouds at 2500 feet AGL
Weather: no significant weather forecast for this period
Text: BECMG 2105/2107 18010KT
Forecast period: 0500 to 1200 UTC 21 June 2019
Forecast type: BECOMING: Conditions expected to become as follows by 0700 UTC 21 June 2019
Winds: from the S (180 degrees) at 12 MPH (10 knots; 5.1 m/s)
Visibility: 6 or more miles 10+ km)
Ceiling: at least 12,000 feet AGL
Clouds: few clouds at 2500 feet AGL
Weather: no significant weather forecast for this period

RUNWAY INFORMATION

Runway 10 Runway length 9842 ft Runway width 148 ft
Runway elevation 142 ft Runway displaced threshold 0 ft Runway heading 100
Runway 28 Runway length 9842 ft Runway width 148 ft
Runway elevation 44 ft Runway displaced threshold 0 ft Runway heading 280

AIRPORT FREQUENCIES

Type APP Name APP Frequency 118.8 MHZ
Type ATIS Name ATIS Frequency 113.8 MHZ
Type GND Name GND Frequency 121.7 MHZ
Type TWR Name TWR Frequency 118.15 MHZ

AIRPORT NEAR NAVIGATION AIDS

Type VOR-DME Name Alicante Frequency 113800 KHZ
Type VOR-DME Name Alicante Frequency 114650 KHZ